Time;durP1;ratioP1;P1;durP2;ratioP2;P2;SDS_P1;SDS_P2;PMS_P1;PMS_P2;Temp;Humidity;BMP_temperature;BMP_pressure;BME280_temperature;BME280_humidity;BME280_pressure;Samples;Min_cycle;Max_cycle;Signal;HPM_P1;HPM_P2
2021/01/10 00:01:07;;;;;;;34.38;18.32;;;;;;;2.04;82.12;101583.38;1790496;78;21003;-58
2021/01/10 00:03:35;;;;;;;34.08;17.35;;;;;;;2.07;82.06;101582.99;1830725;78;20940;-58
2021/01/10 00:06:02;;;;;;;31.80;18.00;;;;;;;2.10;82.03;101578.16;1830726;78;21027;-58
2021/01/10 00:08:30;;;;;;;33.15;17.80;;;;;;;2.13;81.94;101585.71;1830687;78;21043;-57
2021/01/10 00:10:57;;;;;;;30.57;17.17;;;;;;;2.17;81.86;101589.72;1830711;78;21384;-57
2021/01/10 00:13:25;;;;;;;35.60;17.77;;;;;;;2.19;81.76;101587.55;1830659;78;21130;-58
2021/01/10 00:15:52;;;;;;;32.33;16.80;;;;;;;2.20;81.67;101584.04;1830666;78;20880;-58
2021/01/10 00:18:20;;;;;;;31.15;16.37;;;;;;;2.22;81.54;101600.83;1830657;78;20924;-58
2021/01/10 00:20:47;;;;;;;31.97;17.32;;;;;;;2.23;81.49;101589.82;1830736;77;21098;-58
2021/01/10 00:23:16;;;;;;;33.30;17.62;;;;;;;2.24;81.42;101591.14;1830692;77;21382;-58
2021/01/10 00:25:44;;;;;;;32.58;17.05;;;;;;;2.25;81.41;101587.62;1830610;78;21162;-58
2021/01/10 00:28:12;;;;;;;31.80;17.82;;;;;;;2.26;81.34;101584.56;1830730;78;20917;-58
2021/01/10 00:30:39;;;;;;;34.83;18.05;;;;;;;2.27;81.29;101594.28;1830634;78;21031;-58
2021/01/10 00:33:07;;;;;;;31.68;17.48;;;;;;;2.29;81.21;101592.54;1830774;77;20976;-58
2021/01/10 00:35:35;;;;;;;34.92;17.15;;;;;;;2.28;81.15;101590.31;1830862;78;21743;-58
2021/01/10 00:38:03;;;;;;;36.30;18.55;;;;;;;2.28;81.11;101590.31;1841785;77;21202;-58
2021/01/10 00:40:30;;;;;;;38.65;19.35;;;;;;;2.28;81.07;101591.63;1840303;78;21171;-58
2021/01/10 00:42:58;;;;;;;39.60;18.65;;;;;;;2.28;81.01;101591.63;1840339;78;20981;-58
2021/01/10 00:45:26;;;;;;;39.98;19.35;;;;;;;2.26;80.87;101588.08;1840401;78;21004;-58
2021/01/10 00:47:54;;;;;;;34.65;18.67;;;;;;;2.25;80.86;101585.44;1840263;78;21344;-58
2021/01/10 00:50:25;;;;;;;35.60;18.15;;;;;;;2.24;80.79;101586.30;1838843;78;21025;-58
2021/01/10 00:52:53;;;;;;;37.75;18.65;;;;;;;2.18;80.68;101585.78;1840337;78;21053;-58
2021/01/10 00:55:21;;;;;;;35.55;18.23;;;;;;;2.13;80.78;101589.68;1840317;78;21057;-57
2021/01/10 00:57:49;;;;;;;37.67;19.27;;;;;;;2.11;81.03;101585.25;1840278;78;21473;-58
2021/01/10 01:00:18;;;;;;;36.48;17.87;;;;;;;2.11;81.12;101593.19;1840414;78;21358;-58
2021/01/10 01:02:48;;;;;;;35.20;17.50;;;;;;;2.10;81.16;101593.61;1840126;78;21012;-58
2021/01/10 01:05:19;;;;;;;35.98;18.37;;;;;;;2.09;81.13;101582.99;1840425;78;21059;-58
2021/01/10 01:07:47;;;;;;;39.23;18.67;;;;;;;2.08;81.29;101585.19;1840321;78;21561;-58
2021/01/10 01:10:15;;;;;;;34.85;17.75;;;;;;;2.08;81.34;101583.86;1840451;78;21144;-58
2021/01/10 01:12:42;;;;;;;37.93;19.57;;;;;;;2.08;81.38;101585.19;1840433;78;21175;-58
2021/01/10 01:15:12;;;;;;;33.50;17.82;;;;;;;2.06;81.28;101584.28;1840242;78;21001;-58
2021/01/10 01:17:39;;;;;;;37.05;17.95;;;;;;;2.04;81.46;101579.41;1840323;78;21005;-59
2021/01/10 01:20:12;;;;;;;35.68;17.80;;;;;;;2.04;81.61;101584.28;1840329;78;20879;-58
2021/01/10 01:22:43;;;;;;;34.95;18.15;;;;;;;2.07;81.69;101589.60;1840583;78;21466;-58
2021/01/10 01:25:12;;;;;;;37.25;17.98;;;;;;;2.07;81.73;101582.09;1840353;78;21265;-57
2021/01/10 01:27:39;;;;;;;37.35;18.73;;;;;;;2.07;81.79;101587.38;1810695;78;21480;-57
2021/01/10 01:30:10;;;;;;;33.02;18.02;;;;;;;2.07;81.82;101587.38;1840265;78;20969;-57
2021/01/10 01:32:38;;;;;;;35.33;18.75;;;;;;;2.08;81.90;101583.86;1840426;78;21159;-58
2021/01/10 01:35:07;;;;;;;31.45;17.12;;;;;;;2.10;81.93;101587.41;1840372;78;21148;-57
2021/01/10 01:37:35;;;;;;;35.90;18.42;;;;;;;2.11;81.86;101586.58;1833879;78;21577;-57
2021/01/10 01:40:06;;;;;;;33.33;17.65;;;;;;;2.10;81.87;101590.06;1830169;78;21546;-58
2021/01/10 01:42:33;;;;;;;35.55;19.45;;;;;;;2.10;81.91;101591.38;1830692;77;20881;-57
2021/01/10 01:45:06;;;;;;;31.23;16.87;;;;;;;2.08;81.89;101589.16;1830574;78;21066;-57
2021/01/10 01:47:33;;;;;;;38.40;18.73;;;;;;;2.08;81.93;101591.80;1830636;78;20928;-58
2021/01/10 01:50:06;;;;;;;33.60;18.62;;;;;;;2.08;81.96;101590.48;1830671;78;21515;-57
2021/01/10 01:52:34;;;;;;;33.15;18.42;;;;;;;2.08;81.98;101590.48;1830602;78;21173;-58
2021/01/10 01:57:44;;;;;;;38.00;19.67;;;;;;;2.04;81.99;101589.56;1760180;81;21098;-58
2021/01/10 02:00:13;;;;;;;34.10;17.80;;;;;;;2.03;81.96;101601.44;1760393;81;20935;-58
2021/01/10 02:02:42;;;;;;;36.38;18.52;;;;;;;2.02;82.05;101602.30;1760228;81;21195;-58
2021/01/10 02:05:13;;;;;;;40.43;18.25;;;;;;;2.03;82.08;101607.63;1760283;81;21558;-58
2021/01/10 02:08:04;;;;;;;35.68;18.40;;;;;;;2.00;81.84;101611.56;1760211;81;21134;-58
2021/01/10 02:10:36;;;;;;;36.60;18.60;;;;;;;1.91;81.80;101600.83;1760206;81;20896;-58
2021/01/10 02:13:10;;;;;;;39.48;20.05;;;;;;;1.86;82.03;101604.30;1760253;81;21066;-58
2021/01/10 02:15:38;;;;;;;39.00;20.32;;;;;;;1.86;82.26;101610.01;1760205;81;21306;-58
2021/01/10 02:18:08;;;;;;;36.05;18.52;;;;;;;1.87;82.35;101615.75;1760180;81;21204;-58
2021/01/10 02:20:39;;;;;;;35.85;18.48;;;;;;;1.86;82.31;101618.84;1760230;81;20996;-58
2021/01/10 02:23:20;;;;;;;35.20;19.07;;;;;;;1.86;82.39;101608.69;1760230;81;21145;-58
2021/01/10 02:25:49;;;;;;;36.68;18.48;;;;;;;1.89;82.47;101607.86;1760286;81;21584;-58
2021/01/10 02:28:22;;;;;;;38.17;18.70;;;;;;;1.89;82.39;101611.41;1760340;81;21781;-58
2021/01/10 02:30:51;;;;;;;35.60;18.65;;;;;;;1.86;82.32;101610.91;1760131;81;21141;-58
2021/01/10 02:33:35;;;;;;;35.17;18.07;;;;;;;1.83;82.31;101613.52;1760210;81;21022;-58
2021/01/10 02:36:07;;;;;;;33.13;16.67;;;;;;;1.77;82.23;101611.20;1759566;81;21161;-58
2021/01/10 02:38:59;;;;;;;34.67;17.98;;;;;;;1.69;82.26;101608.02;1716528;82;21092;-58
2021/01/10 02:41:46;;;;;;;36.30;18.12;;;;;;;1.60;82.23;101609.17;1714715;82;21207;-58
2021/01/10 02:47:03;;;;;;;32.05;16.32;;;;;;;1.43;82.60;101612.42;1788631;80;20974;-57
2021/01/10 02:49:31;;;;;;;33.20;17.45;;;;;;;1.39;82.89;101613.24;1790679;80;21072;-58
2021/01/10 02:51:59;;;;;;;35.17;16.77;;;;;;;1.32;83.05;101611.38;1790653;80;21129;-58
2021/01/10 02:54:27;;;;;;;38.13;18.25;;;;;;;1.28;83.50;101613.51;1755894;81;21387;-58
2021/01/10 02:57:02;;;;;;;34.38;16.65;;;;;;;1.27;83.88;101611.73;1755810;81;21070;-58
2021/01/10 02:59:31;;;;;;;;;;;;;;;1.27;84.03;101610.41;1758511;81;21034;-58
2021/01/10 03:02:01;;;;;;;37.73;17.73;;;;;;;1.25;84.20;101612.14;1743281;82;20217;-58
2021/01/10 03:04:30;;;;;;;37.53;18.35;;;;;;;1.25;84.42;101606.86;1730437;81;21142;-58
2021/01/10 03:06:59;;;;;;;32.85;16.73;;;;;;;1.26;84.53;101602.03;1755934;81;21355;-58
2021/01/10 03:09:26;;;;;;;36.15;18.05;;;;;;;1.24;84.54;101611.69;1730409;81;21026;-58
2021/01/10 03:11:54;;;;;;;34.27;18.35;;;;;;;1.22;84.57;101609.45;1755912;81;21066;-58
2021/01/10 03:14:22;;;;;;;38.17;18.50;;;;;;;1.20;84.71;101615.11;1755842;81;21085;-57
2021/01/10 03:16:50;;;;;;;36.93;18.57;;;;;;;1.21;84.84;101610.28;1755923;81;21102;-58
2021/01/10 03:19:17;;;;;;;42.08;19.42;;;;;;;1.23;85.01;101611.23;1755760;81;21273;-58
2021/01/10 03:21:45;;;;;;;38.73;20.00;;;;;;;1.22;85.00;101605.04;1755877;81;21082;-58
2021/01/10 03:24:12;;;;;;;35.83;19.12;;;;;;;1.22;85.10;101602.84;1755901;81;20991;-58
2021/01/10 03:26:41;;;;;;;39.65;19.20;;;;;;;1.24;85.14;101608.59;1756094;81;21055;-58
2021/01/10 03:29:08;;;;;;;33.85;18.12;;;;;;;1.24;85.15;101604.62;1756034;81;21153;-58
2021/01/10 03:31:36;;;;;;;41.95;19.40;;;;;;;1.25;85.23;101598.48;1756092;81;21439;-58
2021/01/10 03:34:03;;;;;;;36.73;18.10;;;;;;;1.25;85.33;101608.17;1755963;81;21092;-58
2021/01/10 03:36:31;;;;;;;33.35;16.67;;;;;;;1.24;85.38;101605.08;1755432;81;21078;-58
2021/01/10 03:38:58;;;;;;;36.83;18.32;;;;;;;1.24;85.43;101609.05;1743422;82;21192;-58
2021/01/10 03:41:26;;;;;;;40.40;19.65;;;;;;;1.23;85.41;101604.62;1743939;82;21189;-58
2021/01/10 03:43:53;;;;;;;39.70;17.30;;;;;;;1.23;85.47;101609.91;1743858;81;22004;-58
2021/01/10 03:46:21;;;;;;;38.23;18.77;;;;;;;1.22;85.61;101612.09;1742120;81;21190;-60
2021/01/10 03:48:48;;;;;;;34.35;18.85;;;;;;;1.20;85.65;101607.18;1741143;82;21199;-58
2021/01/10 03:51:16;;;;;;;35.63;17.85;;;;;;;1.18;85.72;101606.27;1741058;82;21135;-58
2021/01/10 03:53:44;;;;;;;42.58;20.20;;;;;;;1.16;85.81;101604.03;1741155;82;21123;-58
2021/01/10 03:56:12;;;;;;;39.50;19.20;;;;;;;1.16;85.86;101606.67;1741109;82;21459;-58
2021/01/10 03:58:40;;;;;;;40.63;20.10;;;;;;;1.14;85.92;101615.47;1741060;82;21135;-58
2021/01/10 04:01:08;;;;;;;38.92;19.27;;;;;;;1.15;85.99;101619.02;1741011;82;21151;-57
2021/01/10 04:03:37;;;;;;;35.58;18.80;;;;;;;1.19;86.16;101621.25;1741095;82;21119;-58
2021/01/10 04:06:04;;;;;;;40.50;20.55;;;;;;;1.23;86.19;101617.83;1741138;82;21047;-57
2021/01/10 04:08:32;;;;;;;35.80;17.85;;;;;;;1.25;86.20;101614.78;1741108;82;21407;-58
2021/01/10 04:10:59;;;;;;;38.25;17.92;;;;;;;1.27;86.20;101620.98;1741033;82;21131;-58
2021/01/10 04:13:27;;;;;;;36.15;18.50;;;;;;;1.27;86.10;101622.30;1741091;82;21127;-58
2021/01/10 04:15:55;;;;;;;35.60;17.95;;;;;;;1.23;86.03;101622.67;1741136;82;21068;-58
2021/01/10 04:18:22;;;;;;;36.85;19.57;;;;;;;1.21;86.06;101626.13;1741057;82;21068;-58
2021/01/10 04:20:50;;;;;;;32.93;16.73;;;;;;;1.16;86.03;101631.36;1741088;82;21381;-58
2021/01/10 04:23:18;;;;;;;33.15;17.32;;;;;;;1.12;86.16;101630.41;1741052;81;21139;-58
2021/01/10 04:25:46;;;;;;;34.23;18.10;;;;;;;1.12;86.29;101627.76;1741085;82;21162;-58
2021/01/10 04:28:13;;;;;;;40.12;18.80;;;;;;;1.10;86.35;101624.20;1741051;82;21076;-58
2021/01/10 04:30:41;;;;;;;38.70;19.05;;;;;;;1.08;86.40;101631.21;1741155;82;21071;-58
2021/01/10 04:33:08;;;;;;;41.30;20.32;;;;;;;1.08;86.47;101635.17;1741090;82;21387;-57
2021/01/10 04:35:36;;;;;;;38.10;18.95;;;;;;;1.08;86.53;101632.53;1741032;82;21210;-57
2021/01/10 04:38:04;;;;;;;34.30;18.62;;;;;;;1.11;86.60;101636.55;1724304;82;21093;-58
2021/01/10 04:40:32;;;;;;;29.80;16.00;;;;;;;1.12;86.53;101640.97;1716987;83;21497;-58
2021/01/10 04:43:00;;;;;;;42.95;20.90;;;;;;;1.16;86.61;101651.59;1716832;83;21112;-57
2021/01/10 04:45:28;;;;;;;40.08;19.27;;;;;;;1.12;86.60;101647.57;1716579;83;21618;-57
2021/01/10 04:47:56;;;;;;;36.48;18.07;;;;;;;1.15;86.71;101656.00;1743509;82;22254;-58
2021/01/10 04:50:23;;;;;;;37.40;20.02;;;;;;;1.14;86.71;101655.09;1743483;82;21525;-57
2021/01/10 04:52:54;;;;;;;41.08;20.60;;;;;;;1.13;86.68;101653.76;1718442;82;21196;-57
2021/01/10 04:55:21;;;;;;;41.02;19.52;;;;;;;1.12;86.71;101652.85;1743525;82;21101;-57
2021/01/10 04:57:50;;;;;;;42.23;19.60;;;;;;;1.11;86.73;101654.17;1743465;82;21703;-57
2021/01/10 05:00:19;;;;;;;36.98;19.92;;;;;;;1.10;86.80;101655.90;1743287;82;21169;-57
2021/01/10 05:02:48;;;;;;;42.08;21.68;;;;;;;1.08;86.85;101657.63;1743441;82;21208;-58
2021/01/10 05:05:17;;;;;;;44.00;21.05;;;;;;;1.05;86.93;101660.22;1743376;82;21144;-58
2021/01/10 05:07:44;;;;;;;42.83;19.57;;;;;;;1.04;87.04;101662.40;1718407;82;21045;-58
2021/01/10 05:10:12;;;;;;;35.50;19.05;;;;;;;1.00;87.14;101656.60;1743377;82;21767;-58
2021/01/10 05:12:40;;;;;;;38.80;20.60;;;;;;;0.96;87.37;101666.20;1743428;82;21117;-58
2021/01/10 05:15:09;;;;;;;45.17;20.17;;;;;;;0.96;87.54;101666.63;1743381;82;21129;-58
2021/01/10 05:17:37;;;;;;;40.98;19.90;;;;;;;0.93;87.62;101666.56;1743369;82;21133;-58
2021/01/10 05:20:08;;;;;;;41.15;20.27;;;;;;;0.94;87.75;101661.74;1743463;82;21059;-58
2021/01/10 05:22:39;;;;;;;41.02;20.00;;;;;;;0.92;87.76;101667.42;1743480;82;21387;-57
2021/01/10 05:25:12;;;;;;;48.33;21.50;;;;;;;0.88;87.77;101662.95;1743304;82;21585;-58
2021/01/10 05:27:40;;;;;;;42.40;21.35;;;;;;;0.85;87.90;101667.31;1742936;82;21180;-57
2021/01/10 05:30:10;;;;;;;39.45;19.62;;;;;;;0.85;87.97;101672.59;1743439;82;21117;-58
2021/01/10 05:32:37;;;;;;;38.65;19.82;;;;;;;0.82;87.93;101669.90;1743385;82;21157;-58
2021/01/10 05:35:07;;;;;;;44.65;22.05;;;;;;;0.82;87.97;101672.95;1743482;82;21671;-57
2021/01/10 05:37:36;;;;;;;41.10;20.75;;;;;;;0.81;88.06;101680.00;1758480;80;21093;-57
2021/01/10 05:40:06;;;;;;;42.35;22.17;;;;;;;0.83;88.17;101680.02;1774377;80;21058;-58
2021/01/10 05:42:34;;;;;;;41.13;20.50;;;;;;;0.88;88.34;101681.44;1774239;80;21160;-58
2021/01/10 05:45:05;;;;;;;40.10;20.50;;;;;;;0.94;88.37;101682.45;1774362;80;21152;-58
2021/01/10 05:47:39;;;;;;;37.50;20.68;;;;;;;1.02;88.32;101686.57;1769977;80;21204;-58
2021/01/10 05:50:15;;;;;;;43.63;22.52;;;;;;;1.12;88.22;101692.92;1769248;81;21171;-58
2021/01/10 05:52:43;;;;;;;50.98;24.50;;;;;;;1.18;88.04;101693.03;1769209;81;21107;-58
2021/01/10 05:55:10;;;;;;;46.55;23.52;;;;;;;1.22;87.87;101693.99;1737809;82;21142;-58
2021/01/10 05:57:38;;;;;;;46.15;22.27;;;;;;;1.27;87.68;101703.77;1737884;82;21126;-58
2021/01/10 06:00:07;;;;;;;44.88;22.80;;;;;;;1.32;87.58;101702.53;1737807;82;22210;-58
2021/01/10 06:02:36;;;;;;;45.40;22.70;;;;;;;1.35;87.41;101706.55;1737948;82;21507;-57
2021/01/10 06:05:18;;;;;;;48.23;23.07;;;;;;;1.39;87.26;101701.78;1737880;82;21481;-57
2021/01/10 06:07:47;;;;;;;43.08;20.90;;;;;;;1.43;87.04;101704.93;1737723;82;21206;-57
2021/01/10 06:10:26;;;;;;;42.43;20.88;;;;;;;1.49;86.91;101709.89;1737785;82;21139;-58
2021/01/10 06:13:06;;;;;;;43.33;22.25;;;;;;;1.54;86.66;101712.18;1737682;82;21438;-58
2021/01/10 06:15:35;;;;;;;41.80;20.23;;;;;;;1.56;86.41;101710.45;1737809;82;21504;-58
2021/01/10 06:18:06;;;;;;;41.00;21.60;;;;;;;1.55;85.80;101717.92;1737738;82;21096;-58
2021/01/10 06:20:34;;;;;;;42.00;20.50;;;;;;;1.46;85.47;101713.80;1737838;82;21100;-58
2021/01/10 06:23:04;;;;;;;43.60;21.40;;;;;;;1.34;85.48;101717.98;1737729;82;21082;-58
2021/01/10 06:25:40;;;;;;;45.08;22.65;;;;;;;1.28;85.73;101716.55;1769173;81;21152;-58
2021/01/10 06:28:13;;;;;;;45.80;22.58;;;;;;;1.23;85.60;101716.91;1768666;81;21168;-58
2021/01/10 06:30:56;;;;;;;43.98;21.17;;;;;;;1.17;85.73;101711.48;1769194;81;21564;-58
2021/01/10 06:33:31;;;;;;;43.48;20.85;;;;;;;1.16;85.68;101722.50;1737578;82;21115;-58
2021/01/10 06:36:05;;;;;;;46.75;21.12;;;;;;;1.16;85.60;101720.27;1737836;82;21107;-58
2021/01/10 06:38:35;;;;;;;41.42;21.45;;;;;;;1.17;85.17;101717.67;1711691;82;21298;-58
2021/01/10 06:41:21;;;;;;;41.68;19.17;;;;;;;1.20;85.12;101724.75;1708274;84;21005;-58
2021/01/10 06:43:54;;;;;;;38.90;19.12;;;;;;;1.24;84.97;101727.48;1708407;84;21127;-58
2021/01/10 06:46:21;;;;;;;43.38;21.75;;;;;;;1.27;84.92;101724.91;1709124;83;21088;-58
2021/01/10 06:48:49;;;;;;;43.73;21.00;;;;;;;1.34;84.93;101721.95;1756442;81;21120;-58
2021/01/10 06:51:17;;;;;;;42.27;21.42;;;;;;;1.42;84.90;101721.65;1756431;81;21387;-58
2021/01/10 06:53:45;;;;;;;45.63;21.17;;;;;;;1.50;84.59;101721.80;1756360;81;21045;-58
2021/01/10 06:56:13;;;;;;;43.30;21.25;;;;;;;1.54;84.33;101724.95;1756365;81;21144;-58
2021/01/10 06:59:11;;;;;;;40.88;19.80;;;;;;;1.57;84.05;101724.13;1756368;81;21085;-58
2021/01/10 07:01:56;;;;;;;43.58;20.00;;;;;;;1.58;83.82;101735.16;1756531;81;21317;-57
2021/01/10 07:04:38;;;;;;;60.00;29.80;;;;;;;1.59;83.33;101730.77;1756826;81;22204;-58
2021/01/10 07:07:06;;;;;;;48.50;23.85;;;;;;;1.57;83.18;101733.38;1756548;81;21077;-57
2021/01/10 07:09:54;;;;;;;46.13;24.20;;;;;;;1.57;83.22;101743.95;1756570;81;21081;-57
2021/01/10 07:12:22;;;;;;;49.40;25.10;;;;;;;1.60;83.21;101743.13;1756597;81;21077;-58
2021/01/10 07:14:50;;;;;;;46.10;24.02;;;;;;;1.60;83.00;101747.97;1756623;81;21129;-58
2021/01/10 07:17:18;;;;;;;44.60;21.12;;;;;;;1.62;82.92;101748.01;1756491;81;21204;-58
2021/01/10 07:19:48;;;;;;;40.52;21.82;;;;;;;1.62;82.75;101751.52;1756625;81;21143;-58
2021/01/10 07:22:31;;;;;;;47.62;22.32;;;;;;;1.64;82.87;101752.44;1756672;81;21548;-58
2021/01/10 07:25:22;;;;;;;49.58;25.57;;;;;;;1.68;82.67;101757.37;1756585;81;21137;-58
2021/01/10 07:27:49;;;;;;;52.78;26.12;;;;;;;1.71;82.19;101756.09;1756484;81;21124;-58
2021/01/10 07:30:24;;;;;;;49.70;24.40;;;;;;;1.73;81.61;101760.09;1756568;81;21375;-57
2021/01/10 07:32:51;;;;;;;;;;;;;;;1.75;81.49;101751.77;1759022;81;21145;-58
2021/01/10 07:35:19;;;;;;;46.40;23.05;;;;;;;1.75;81.23;101755.28;1756532;81;20245;-57
2021/01/10 07:37:46;;;;;;;41.92;20.40;;;;;;;1.77;80.81;101761.93;1767703;80;21180;-59
2021/01/10 07:40:24;;;;;;;46.53;22.30;;;;;;;1.78;80.50;101767.27;1713026;83;21123;-58
2021/01/10 07:43:00;;;;;;;50.15;24.43;;;;;;;1.78;80.22;101762.39;1776177;80;21202;-58
2021/01/10 07:45:39;;;;;;;57.53;25.12;;;;;;;1.75;80.08;101763.66;1775835;80;21153;-58
2021/01/10 07:48:08;;;;;;;56.08;25.90;;;;;;;1.75;80.12;101763.66;1788183;80;21208;-58
2021/01/10 07:50:36;;;;;;;46.48;22.67;;;;;;;1.77;80.28;101769.45;1765057;80;21066;-58
2021/01/10 07:53:03;;;;;;;49.88;22.90;;;;;;;1.81;80.16;101769.05;1791673;80;21046;-57
2021/01/10 07:55:32;;;;;;;39.25;20.15;;;;;;;1.82;80.00;101762.89;1791541;79;21448;-58
2021/01/10 07:58:08;;;;;;;44.63;21.07;;;;;;;1.85;79.83;101765.59;1791584;80;21220;-58
2021/01/10 08:00:47;;;;;;;41.83;20.43;;;;;;;1.85;79.16;101777.08;1791605;79;21062;-58
2021/01/10 08:03:25;;;;;;;37.40;18.17;;;;;;;1.85;78.87;101780.14;1791595;80;21207;-57
2021/01/10 08:06:02;;;;;;;52.85;24.87;;;;;;;1.83;78.54;101773.93;1791619;79;21038;-58
2021/01/10 08:08:47;;;;;;;49.77;24.07;;;;;;;1.85;78.48;101783.69;1791495;80;22282;-58
2021/01/10 08:11:31;;;;;;;61.08;27.32;;;;;;;1.86;78.53;101789.43;1791650;80;21079;-59
2021/01/10 08:13:59;;;;;;;52.67;25.62;;;;;;;1.91;78.72;101785.56;1791552;79;21121;-59
2021/01/10 08:16:30;;;;;;;51.68;24.43;;;;;;;1.98;78.68;101782.14;1791507;80;21178;-58
2021/01/10 08:19:03;;;;;;;42.08;21.87;;;;;;;2.04;78.49;101783.10;1791693;79;21133;-58
2021/01/10 08:21:31;;;;;;;52.10;23.67;;;;;;;2.07;78.15;101788.02;1791627;80;22256;-57
2021/01/10 08:23:59;;;;;;;53.83;25.20;;;;;;;2.10;78.06;101795.11;1791535;80;21117;-58
2021/01/10 08:26:26;;;;;;;50.38;24.15;;;;;;;2.14;77.99;101789.02;1791592;80;21161;-58
2021/01/10 08:29:02;;;;;;;43.42;22.70;;;;;;;2.17;78.12;101791.72;1791611;80;21076;-58
2021/01/10 08:31:26;;;;;;;41.25;21.95;;;;;;;2.22;77.82;101800.61;1791293;80;21192;-58
2021/01/10 08:34:08;;;;;;;53.63;25.57;;;;;;;2.28;77.54;101807.33;1791602;80;21741;-57
2021/01/10 08:36:36;;;;;;;44.93;23.57;;;;;;;2.34;77.17;101806.99;1789811;80;21066;-58
2021/01/10 08:39:08;;;;;;;49.10;23.55;;;;;;;2.36;77.16;101799.96;1770891;81;21492;-58
2021/01/10 08:41:40;;;;;;;50.20;25.90;;;;;;;2.45;77.20;101802.73;1709941;84;21063;-58
2021/01/10 08:44:20;;;;;;;55.80;23.02;;;;;;;2.55;77.12;101815.27;1731089;82;21149;-58
2021/01/10 08:46:50;;;;;;;43.15;21.07;;;;;;;2.62;77.24;101804.31;1739463;81;21300;-59
2021/01/10 08:49:24;;;;;;;46.02;21.62;;;;;;;2.66;76.94;101797.31;1739475;82;21147;-57
2021/01/10 08:51:52;;;;;;;48.67;21.97;;;;;;;2.70;76.73;101795.16;1739788;82;21099;-58
2021/01/10 08:54:23;;;;;;;40.38;18.80;;;;;;;2.72;76.31;101796.98;1739506;82;21728;-58
2021/01/10 08:56:53;;;;;;;41.50;19.82;;;;;;;2.73;75.16;101800.50;1739526;82;21148;-57
2021/01/10 08:59:21;;;;;;;41.65;21.42;;;;;;;2.75;75.18;101795.23;1739440;82;21214;-58
2021/01/10 09:01:49;;;;;;;46.92;22.40;;;;;;;2.83;75.06;101797.13;1739402;82;21146;-58
2021/01/10 09:04:17;;;;;;;45.63;23.60;;;;;;;2.93;74.94;101790.20;1739514;82;21579;-58
2021/01/10 09:07:07;;;;;;;48.63;22.62;;;;;;;3.07;74.97;101789.05;1739417;82;21071;-57
2021/01/10 09:09:47;;;;;;;67.32;29.30;;;;;;;3.22;74.78;101787.48;1739624;82;21100;-58
2021/01/10 09:12:39;;;;;;;68.47;34.10;;;;;;;3.33;74.43;101785.83;1739429;82;21370;-57
2021/01/10 09:15:27;;;;;;;67.12;32.67;;;;;;;3.43;74.29;101777.55;1732803;82;21162;-57
2021/01/10 09:18:03;;;;;;;60.20;28.98;;;;;;;3.53;73.83;101782.06;1739509;82;21086;-58
2021/01/10 09:20:48;;;;;;;49.30;23.83;;;;;;;3.56;73.23;101775.91;1738437;82;21178;-59
2021/01/10 09:23:16;;;;;;;50.78;26.45;;;;;;;3.60;72.88;101767.11;1739636;81;21070;-58
2021/01/10 09:25:44;;;;;;;44.50;23.18;;;;;;;3.63;72.43;101764.48;1739410;82;21459;-58
2021/01/10 09:28:16;;;;;;;37.53;19.73;;;;;;;3.65;72.08;101762.77;1739456;81;21071;-58
2021/01/10 09:30:54;;;;;;;39.95;21.17;;;;;;;3.68;71.55;101766.77;1739496;82;21987;-58
2021/01/10 09:33:31;;;;;;;42.85;21.90;;;;;;;3.77;71.23;101764.66;1739490;82;21067;-58
2021/01/10 09:36:00;;;;;;;41.77;20.32;;;;;;;3.86;71.26;101751.87;1739460;82;21173;-58
2021/01/10 09:38:31;;;;;;;44.50;21.23;;;;;;;3.94;71.14;101747.97;1751997;81;21459;-58
2021/01/10 09:41:10;;;;;;;42.55;20.12;;;;;;;3.99;71.18;101733.88;1753984;81;21145;-58
2021/01/10 09:43:47;;;;;;;43.38;19.48;;;;;;;4.03;70.85;101740.53;1754127;81;21594;-58
2021/01/10 09:46:33;;;;;;;40.20;19.70;;;;;;;4.09;70.68;101740.56;1754087;81;21051;-58
2021/01/10 09:49:17;;;;;;;42.45;19.90;;;;;;;4.13;70.14;101745.05;1753930;81;21086;-58
2021/01/10 09:51:57;;;;;;;41.08;21.20;;;;;;;4.16;70.00;101744.61;1754148;81;21234;-58
2021/01/10 09:54:27;;;;;;;40.78;20.17;;;;;;;4.21;70.02;101743.78;1753988;81;21094;-58
2021/01/10 09:57:13;;;;;;;41.88;20.65;;;;;;;4.24;69.59;101734.05;1754088;81;21503;-58
2021/01/10 09:59:50;;;;;;;38.65;19.50;;;;;;;4.26;69.48;101734.95;1754021;81;21202;-58
2021/01/10 10:02:22;;;;;;;38.60;19.87;;;;;;;4.30;69.31;101734.55;1754011;81;21126;-58
2021/01/10 10:04:54;;;;;;;42.60;19.85;;;;;;;4.32;68.97;101735.44;1754024;81;21205;-58
2021/01/10 10:07:34;;;;;;;36.15;18.77;;;;;;;4.35;68.80;101739.90;1753902;81;20987;-57
2021/01/10 10:10:22;;;;;;;46.73;20.97;;;;;;;4.36;68.23;101733.70;1754137;81;21070;-58
2021/01/10 10:12:57;;;;;;;37.60;18.77;;;;;;;4.40;68.31;101731.52;1754002;81;21154;-57
2021/01/10 10:15:42;;;;;;;41.28;19.52;;;;;;;4.48;68.30;101729.78;1746026;81;21102;-57
2021/01/10 10:18:20;;;;;;;41.20;19.60;;;;;;;4.57;68.00;101731.61;1754295;81;22121;-58
2021/01/10 10:20:47;;;;;;;42.55;18.48;;;;;;;4.59;67.65;101728.09;1753666;81;21236;-58
2021/01/10 10:23:15;;;;;;;38.28;19.57;;;;;;;4.64;67.37;101730.78;1754120;81;21146;-58
2021/01/10 10:25:46;;;;;;;38.20;19.65;;;;;;;4.63;66.75;101732.09;1753929;81;21118;-58
2021/01/10 10:28:13;;;;;;;36.70;19.42;;;;;;;4.58;66.85;101730.30;1753999;81;21074;-58
2021/01/10 10:30:42;;;;;;;33.42;18.12;;;;;;;4.61;66.85;101722.77;1753920;81;21140;-58
2021/01/10 10:33:10;;;;;;;30.08;16.27;;;;;;;4.65;66.85;101711.31;1754027;81;21111;-58
2021/01/10 10:35:38;;;;;;;31.97;16.10;;;;;;;4.71;66.05;101705.11;1753995;81;21019;-57
2021/01/10 10:38:07;;;;;;;31.55;16.48;;;;;;;4.77;65.66;101710.48;1729597;82;21141;-57
2021/01/10 10:40:35;;;;;;;28.38;15.53;;;;;;;4.82;64.99;101715.36;1724023;83;21060;-57
2021/01/10 10:43:02;;;;;;;25.57;14.65;;;;;;;4.84;64.70;101708.28;1724001;83;21379;-57
2021/01/10 10:45:30;;;;;;;30.43;15.55;;;;;;;4.85;64.24;101715.80;1723986;83;21143;-58
2021/01/10 10:47:59;;;;;;;26.25;13.98;;;;;;;4.90;63.82;101711.84;1724835;83;21563;-58
2021/01/10 10:50:26;;;;;;;28.45;13.48;;;;;;;4.92;63.27;101703.00;1760707;81;21173;-58
2021/01/10 10:52:54;;;;;;;21.82;12.55;;;;;;;4.93;62.82;101708.77;1760700;81;21078;-57
2021/01/10 10:55:25;;;;;;;19.32;10.25;;;;;;;4.95;62.12;101711.41;1727134;83;21718;-57
2021/01/10 10:57:51;;;;;;;23.12;13.20;;;;;;;4.98;61.53;101711.45;1760610;81;21081;-57
2021/01/10 11:00:21;;;;;;;24.55;13.78;;;;;;;5.00;61.07;101718.53;1727234;83;21389;-57
2021/01/10 11:02:49;;;;;;;31.52;15.18;;;;;;;5.01;60.79;101721.63;1760626;81;21176;-58
2021/01/10 11:05:17;;;;;;;27.98;14.90;;;;;;;5.02;60.49;101722.53;1727095;83;21143;-57
2021/01/10 11:07:45;;;;;;;27.37;14.90;;;;;;;5.03;60.78;101720.32;1760692;81;21368;-57
2021/01/10 11:10:13;;;;;;;28.38;13.90;;;;;;;5.06;60.90;101717.67;1727042;83;21139;-57
2021/01/10 11:12:40;;;;;;;26.40;13.13;;;;;;;5.09;61.13;101717.67;1760741;81;21141;-57
2021/01/10 11:15:08;;;;;;;26.95;14.20;;;;;;;5.11;60.52;101714.58;1760595;81;21126;-57
2021/01/10 11:17:37;;;;;;;29.60;14.70;;;;;;;5.13;60.43;101723.44;1760751;81;21066;-57
2021/01/10 11:20:07;;;;;;;30.10;14.65;;;;;;;5.16;60.74;101727.44;1760600;81;21340;-56
2021/01/10 11:22:35;;;;;;;28.12;14.68;;;;;;;5.18;60.95;101727.88;1760602;81;21098;-57
2021/01/10 11:25:08;;;;;;;25.52;13.83;;;;;;;5.17;60.83;101732.33;1760676;81;21074;-58
2021/01/10 11:27:35;;;;;;;26.37;13.05;;;;;;;5.18;60.83;101734.53;1727157;82;21079;-58
2021/01/10 11:30:05;;;;;;;26.25;14.25;;;;;;;5.16;60.48;101732.75;1760662;81;21066;-56
2021/01/10 11:32:34;;;;;;;31.10;14.50;;;;;;;5.16;60.90;101731.42;1760763;81;21385;-57
2021/01/10 11:35:03;;;;;;;30.10;15.05;;;;;;;5.18;61.43;101731.87;1760570;81;21129;-58
2021/01/10 11:37:31;;;;;;;28.15;15.88;;;;;;;5.18;61.77;101729.21;1741192;81;21552;-57
2021/01/10 11:39:58;;;;;;;22.90;12.28;;;;;;;5.20;62.02;101729.67;1791840;80;21249;-58